DUS weather

Düsseldorf Airport
Düsseldorf, North Rhine-Westphalia, Germany

Public forecast

Using degrees Celsius for public forecast. Weather courtesy of forecast.io.

METAR (pilot weather report)

Retrieved 2018/10/20 04:20 UTC (29 minutes ago):

EDDL 200420Z 35003KT 4500 0700NE R23R/0900VP2000D R23L/P2000N BCFG BR FEW001 03/03 Q1028 TEMPO 0800 FG

TAF (pilot weather forecast)

Forecast is more than 12 hours old.

Retrieved 2018/10/19 00:27 UTC (1 day ago):

TAF EDDL 192300Z 2000/2106 VRB03KT CAVOK PROB30 TEMPO 2004/2007 4000 BR TEMPO 2011/2016 34006KT